sensor_id;sensor_type;location;lat;lon;timestamp;pressure;altitude;pressure_sealevel;temperature;humidity
77454;BME280;66538;53.150;18.160;2023-06-10T00:02:09;101402.42;;;19.23;61.45
77454;BME280;66538;53.150;18.160;2023-06-10T00:04:36;101405.63;;;19.22;61.52
77454;BME280;66538;53.150;18.160;2023-06-10T00:07:04;101403.58;;;19.21;61.66
77454;BME280;66538;53.150;18.160;2023-06-10T00:09:35;101408.58;;;19.18;61.54
77454;BME280;66538;53.150;18.160;2023-06-10T00:12:04;101410.73;;;19.18;61.62
77454;BME280;66538;53.150;18.160;2023-06-10T00:14:37;101412.85;;;19.17;61.66
77454;BME280;66538;53.150;18.160;2023-06-10T00:17:05;101413.20;;;19.16;61.70
77454;BME280;66538;53.150;18.160;2023-06-10T00:19:37;101415.21;;;19.15;61.82
77454;BME280;66538;53.150;18.160;2023-06-10T00:22:08;101420.15;;;19.13;61.67
77454;BME280;66538;53.150;18.160;2023-06-10T00:24:36;101419.52;;;19.12;61.74
77454;BME280;66538;53.150;18.160;2023-06-10T00:27:02;101419.75;;;19.09;61.73
77454;BME280;66538;53.150;18.160;2023-06-10T00:29:29;101421.16;;;19.10;61.90
77454;BME280;66538;53.150;18.160;2023-06-10T00:31:56;101419.27;;;19.09;61.80
77454;BME280;66538;53.150;18.160;2023-06-10T00:34:24;101417.46;;;19.07;61.84
77454;BME280;66538;53.150;18.160;2023-06-10T00:36:52;101420.67;;;19.06;61.75
77454;BME280;66538;53.150;18.160;2023-06-10T00:39:18;101419.65;;;19.06;61.74
77454;BME280;66538;53.150;18.160;2023-06-10T00:42:07;101422.63;;;19.05;61.98
77454;BME280;66538;53.150;18.160;2023-06-10T00:44:37;101419.51;;;19.05;61.84
77454;BME280;66538;53.150;18.160;2023-06-10T00:47:04;101418.52;;;19.04;61.79
77454;BME280;66538;53.150;18.160;2023-06-10T00:49:32;101419.48;;;19.03;61.72
77454;BME280;66538;53.150;18.160;2023-06-10T00:51:59;101425.94;;;19.03;61.76
77454;BME280;66538;53.150;18.160;2023-06-10T00:54:26;101424.52;;;19.02;61.77
77454;BME280;66538;53.150;18.160;2023-06-10T00:56:53;101425.20;;;19.01;61.61
77454;BME280;66538;53.150;18.160;2023-06-10T00:59:21;101433.27;;;19.02;61.57
77454;BME280;66538;53.150;18.160;2023-06-10T01:01:47;101434.98;;;19.02;61.48
77454;BME280;66538;53.150;18.160;2023-06-10T01:04:14;101441.28;;;19.03;61.57
77454;BME280;66538;53.150;18.160;2023-06-10T01:07:11;101441.58;;;19.03;61.70
77454;BME280;66538;53.150;18.160;2023-06-10T01:09:43;101445.85;;;19.03;61.68
77454;BME280;66538;53.150;18.160;2023-06-10T01:12:13;101444.39;;;19.02;61.61
77454;BME280;66538;53.150;18.160;2023-06-10T01:14:43;101452.48;;;19.02;61.47
77454;BME280;66538;53.150;18.160;2023-06-10T01:17:11;101450.02;;;19.01;61.46
77454;BME280;66538;53.150;18.160;2023-06-10T01:19:38;101449.41;;;19.02;61.20
77454;BME280;66538;53.150;18.160;2023-06-10T01:22:04;101445.59;;;19.03;61.31
77454;BME280;66538;53.150;18.160;2023-06-10T01:24:32;101450.84;;;19.04;61.32
77454;BME280;66538;53.150;18.160;2023-06-10T01:27:04;101451.48;;;19.03;61.21
77454;BME280;66538;53.150;18.160;2023-06-10T01:29:48;101452.19;;;19.03;61.19
77454;BME280;66538;53.150;18.160;2023-06-10T01:32:50;101453.84;;;19.00;61.36
77454;BME280;66538;53.150;18.160;2023-06-10T01:35:21;101457.65;;;18.99;61.27
77454;BME280;66538;53.150;18.160;2023-06-10T01:37:48;101457.96;;;18.98;61.29
77454;BME280;66538;53.150;18.160;2023-06-10T01:40:16;101455.72;;;18.94;61.47
77454;BME280;66538;53.150;18.160;2023-06-10T01:42:43;101460.04;;;18.93;61.36
77454;BME280;66538;53.150;18.160;2023-06-10T01:45:10;101461.10;;;18.92;61.32
77454;BME280;66538;53.150;18.160;2023-06-10T01:47:36;101467.16;;;18.90;61.39
77454;BME280;66538;53.150;18.160;2023-06-10T01:50:04;101465.95;;;18.86;61.59
77454;BME280;66538;53.150;18.160;2023-06-10T01:52:30;101475.49;;;18.86;61.58
77454;BME280;66538;53.150;18.160;2023-06-10T01:54:57;101474.71;;;18.83;61.63
77454;BME280;66538;53.150;18.160;2023-06-10T01:57:24;101475.17;;;18.79;61.62
77454;BME280;66538;53.150;18.160;2023-06-10T01:59:50;101480.17;;;18.77;61.68
77454;BME280;66538;53.150;18.160;2023-06-10T02:02:17;101479.80;;;18.73;61.77
77454;BME280;66538;53.150;18.160;2023-06-10T02:04:44;101485.36;;;18.71;61.73
77454;BME280;66538;53.150;18.160;2023-06-10T02:07:10;101488.36;;;18.68;61.71
77454;BME280;66538;53.150;18.160;2023-06-10T02:09:38;101488.79;;;18.66;61.99
77454;BME280;66538;53.150;18.160;2023-06-10T02:12:06;101491.10;;;18.64;62.16
77454;BME280;66538;53.150;18.160;2023-06-10T02:14:34;101492.38;;;18.60;62.08
77454;BME280;66538;53.150;18.160;2023-06-10T02:17:00;101494.20;;;18.59;62.09
77454;BME280;66538;53.150;18.160;2023-06-10T02:19:27;101501.42;;;18.58;61.89
77454;BME280;66538;53.150;18.160;2023-06-10T02:21:54;101500.35;;;18.57;61.76
77454;BME280;66538;53.150;18.160;2023-06-10T02:24:21;101503.02;;;18.56;61.70
77454;BME280;66538;53.150;18.160;2023-06-10T02:26:48;101495.92;;;18.53;61.48
77454;BME280;66538;53.150;18.160;2023-06-10T02:29:15;101497.39;;;18.55;61.35
77454;BME280;66538;53.150;18.160;2023-06-10T02:31:41;101493.55;;;18.54;61.33
77454;BME280;66538;53.150;18.160;2023-06-10T02:34:08;101497.73;;;18.53;61.26
77454;BME280;66538;53.150;18.160;2023-06-10T02:36:35;101502.26;;;18.52;61.34
77454;BME280;66538;53.150;18.160;2023-06-10T02:39:03;101499.45;;;18.49;61.21
77454;BME280;66538;53.150;18.160;2023-06-10T02:41:31;101502.41;;;18.47;61.15
77454;BME280;66538;53.150;18.160;2023-06-10T02:43:59;101501.64;;;18.41;61.23
77454;BME280;66538;53.150;18.160;2023-06-10T02:46:25;101515.27;;;18.41;61.31
77454;BME280;66538;53.150;18.160;2023-06-10T02:48:52;101513.55;;;18.39;61.41
77454;BME280;66538;53.150;18.160;2023-06-10T02:51:21;101515.59;;;18.34;61.50
77454;BME280;66538;53.150;18.160;2023-06-10T02:53:55;101518.78;;;18.30;61.61
77454;BME280;66538;53.150;18.160;2023-06-10T02:56:21;101515.31;;;18.27;61.67
77454;BME280;66538;53.150;18.160;2023-06-10T02:58:48;101522.77;;;18.25;61.57
77454;BME280;66538;53.150;18.160;2023-06-10T03:01:16;101526.62;;;18.22;61.72
77454;BME280;66538;53.150;18.160;2023-06-10T03:03:58;101535.73;;;18.19;61.92
77454;BME280;66538;53.150;18.160;2023-06-10T03:06:25;101537.77;;;18.19;61.75
77454;BME280;66538;53.150;18.160;2023-06-10T03:08:54;101544.20;;;18.18;61.86
77454;BME280;66538;53.150;18.160;2023-06-10T03:11:21;101546.64;;;18.18;62.04
77454;BME280;66538;53.150;18.160;2023-06-10T03:13:48;101553.03;;;18.16;61.99
77454;BME280;66538;53.150;18.160;2023-06-10T03:16:16;101555.01;;;18.16;62.07
77454;BME280;66538;53.150;18.160;2023-06-10T03:18:43;101565.92;;;18.18;62.01
77454;BME280;66538;53.150;18.160;2023-06-10T03:21:10;101564.23;;;18.17;61.85
77454;BME280;66538;53.150;18.160;2023-06-10T03:23:37;101563.54;;;18.16;61.87
77454;BME280;66538;53.150;18.160;2023-06-10T03:26:04;101561.25;;;18.15;62.05
77454;BME280;66538;53.150;18.160;2023-06-10T03:28:32;101563.90;;;18.14;61.94
77454;BME280;66538;53.150;18.160;2023-06-10T03:30:58;101564.64;;;18.15;61.87
77454;BME280;66538;53.150;18.160;2023-06-10T03:33:26;101565.66;;;18.17;61.79
77454;BME280;66538;53.150;18.160;2023-06-10T03:35:53;101566.02;;;18.19;61.75
77454;BME280;66538;53.150;18.160;2023-06-10T03:38:20;101571.11;;;18.23;61.75
77454;BME280;66538;53.150;18.160;2023-06-10T03:40:48;101575.09;;;18.26;61.67
77454;BME280;66538;53.150;18.160;2023-06-10T03:43:14;101577.23;;;18.29;61.59
77454;BME280;66538;53.150;18.160;2023-06-10T03:45:42;101578.94;;;18.33;61.44
77454;BME280;66538;53.150;18.160;2023-06-10T03:48:09;101582.93;;;18.39;61.03
77454;BME280;66538;53.150;18.160;2023-06-10T03:50:48;101588.27;;;18.47;60.84
77454;BME280;66538;53.150;18.160;2023-06-10T03:53:17;101589.20;;;18.57;60.71
77454;BME280;66538;53.150;18.160;2023-06-10T03:55:44;101595.78;;;18.67;60.09
77454;BME280;66538;53.150;18.160;2023-06-10T03:58:12;101600.77;;;18.75;59.71
77454;BME280;66538;53.150;18.160;2023-06-10T04:00:42;101607.05;;;18.84;59.37
77454;BME280;66538;53.150;18.160;2023-06-10T04:03:09;101614.91;;;18.89;58.73
77454;BME280;66538;53.150;18.160;2023-06-10T04:05:43;101622.48;;;18.91;58.45
77454;BME280;66538;53.150;18.160;2023-06-10T04:08:10;101623.98;;;18.96;57.82
77454;BME280;66538;53.150;18.160;2023-06-10T04:10:37;101627.98;;;18.95;57.58
77454;BME280;66538;53.150;18.160;2023-06-10T04:13:04;101622.73;;;18.99;57.25
77454;BME280;66538;53.150;18.160;2023-06-10T04:15:33;101626.20;;;19.04;56.52
77454;BME280;66538;53.150;18.160;2023-06-10T04:18:03;101620.54;;;19.10;56.14
77454;BME280;66538;53.150;18.160;2023-06-10T04:20:30;101623.83;;;19.17;55.54
77454;BME280;66538;53.150;18.160;2023-06-10T04:22:57;101625.27;;;19.23;55.48
77454;BME280;66538;53.150;18.160;2023-06-10T04:25:24;101622.84;;;19.29;54.53
77454;BME280;66538;53.150;18.160;2023-06-10T04:27:51;101631.40;;;19.34;54.61
77454;BME280;66538;53.150;18.160;2023-06-10T04:30:17;101635.82;;;19.39;53.61
77454;BME280;66538;53.150;18.160;2023-06-10T04:32:45;101632.48;;;19.44;53.77
77454;BME280;66538;53.150;18.160;2023-06-10T04:35:15;101628.70;;;19.53;53.20
77454;BME280;66538;53.150;18.160;2023-06-10T04:37:42;101636.32;;;19.63;52.77
77454;BME280;66538;53.150;18.160;2023-06-10T04:40:10;101634.14;;;19.73;52.50
77454;BME280;66538;53.150;18.160;2023-06-10T04:42:37;101630.25;;;19.76;51.92
77454;BME280;66538;53.150;18.160;2023-06-10T04:45:04;101631.63;;;19.80;52.07
77454;BME280;66538;53.150;18.160;2023-06-10T04:47:31;101634.36;;;19.81;51.63
77454;BME280;66538;53.150;18.160;2023-06-10T04:50:01;101624.40;;;19.83;51.59
77454;BME280;66538;53.150;18.160;2023-06-10T04:52:29;101626.86;;;19.86;51.20
77454;BME280;66538;53.150;18.160;2023-06-10T04:54:57;101628.27;;;19.89;50.66
77454;BME280;66538;53.150;18.160;2023-06-10T04:57:24;101628.77;;;19.89;50.64
77454;BME280;66538;53.150;18.160;2023-06-10T04:59:53;101636.47;;;19.90;50.52
77454;BME280;66538;53.150;18.160;2023-06-10T05:02:19;101642.71;;;19.91;50.04
77454;BME280;66538;53.150;18.160;2023-06-10T05:04:46;101643.63;;;19.90;49.94
77454;BME280;66538;53.150;18.160;2023-06-10T05:07:13;101645.70;;;19.92;49.96
77454;BME280;66538;53.150;18.160;2023-06-10T05:09:39;101644.77;;;19.94;49.74
77454;BME280;66538;53.150;18.160;2023-06-10T05:12:06;101645.55;;;19.94;49.44
77454;BME280;66538;53.150;18.160;2023-06-10T05:14:33;101644.73;;;19.93;49.61
77454;BME280;66538;53.150;18.160;2023-06-10T05:17:00;101650.30;;;19.93;49.32
77454;BME280;66538;53.150;18.160;2023-06-10T05:19:27;101647.70;;;19.88;49.19
77454;BME280;66538;53.150;18.160;2023-06-10T05:21:53;101646.56;;;19.85;49.38
77454;BME280;66538;53.150;18.160;2023-06-10T05:24:20;101652.23;;;19.83;49.32
77454;BME280;66538;53.150;18.160;2023-06-10T05:26:47;101647.36;;;19.81;49.23
77454;BME280;66538;53.150;18.160;2023-06-10T05:29:15;101649.33;;;19.77;49.09
77454;BME280;66538;53.150;18.160;2023-06-10T05:31:42;101647.83;;;19.74;48.96
77454;BME280;66538;53.150;18.160;2023-06-10T05:34:09;101641.64;;;19.70;49.11
77454;BME280;66538;53.150;18.160;2023-06-10T05:36:35;101640.77;;;19.70;48.96
77454;BME280;66538;53.150;18.160;2023-06-10T05:39:02;101644.83;;;19.68;48.74
77454;BME280;66538;53.150;18.160;2023-06-10T05:41:29;101646.16;;;19.67;48.99
77454;BME280;66538;53.150;18.160;2023-06-10T05:43:56;101646.52;;;19.69;49.01
77454;BME280;66538;53.150;18.160;2023-06-10T05:46:22;101647.79;;;19.72;48.90
77454;BME280;66538;53.150;18.160;2023-06-10T05:48:49;101646.16;;;19.72;48.86
77454;BME280;66538;53.150;18.160;2023-06-10T05:51:15;101650.60;;;19.73;48.51
77454;BME280;66538;53.150;18.160;2023-06-10T05:53:42;101651.02;;;19.72;48.89
77454;BME280;66538;53.150;18.160;2023-06-10T05:56:09;101651.10;;;19.73;48.90
77454;BME280;66538;53.150;18.160;2023-06-10T05:58:35;101652.92;;;19.79;49.00
77454;BME280;66538;53.150;18.160;2023-06-10T06:01:02;101657.44;;;19.84;48.83
77454;BME280;66538;53.150;18.160;2023-06-10T06:03:28;101658.38;;;19.87;48.88
77454;BME280;66538;53.150;18.160;2023-06-10T06:05:55;101655.90;;;19.89;48.85
77454;BME280;66538;53.150;18.160;2023-06-10T06:08:22;101655.38;;;19.88;49.12
77454;BME280;66538;53.150;18.160;2023-06-10T06:10:50;101655.02;;;19.91;49.16
77454;BME280;66538;53.150;18.160;2023-06-10T06:13:16;101651.27;;;19.94;49.17
77454;BME280;66538;53.150;18.160;2023-06-10T06:15:43;101644.14;;;19.98;49.08
77454;BME280;66538;53.150;18.160;2023-06-10T06:18:10;101649.51;;;20.07;49.07
77454;BME280;66538;53.150;18.160;2023-06-10T06:20:36;101648.94;;;20.21;49.02
77454;BME280;66538;53.150;18.160;2023-06-10T06:23:03;101649.84;;;20.34;48.65
77454;BME280;66538;53.150;18.160;2023-06-10T06:25:30;101651.14;;;20.49;48.67
77454;BME280;66538;53.150;18.160;2023-06-10T06:27:56;101661.42;;;20.69;48.43
77454;BME280;66538;53.150;18.160;2023-06-10T06:30:23;101662.04;;;20.82;47.78
77454;BME280;66538;53.150;18.160;2023-06-10T06:32:50;101662.58;;;20.94;47.74
77454;BME280;66538;53.150;18.160;2023-06-10T06:35:18;101660.56;;;21.08;47.72
77454;BME280;66538;53.150;18.160;2023-06-10T06:37:45;101656.27;;;21.23;47.55
77454;BME280;66538;53.150;18.160;2023-06-10T06:40:18;101655.08;;;21.41;47.17
77454;BME280;66538;53.150;18.160;2023-06-10T06:42:44;101656.72;;;21.59;46.67
77454;BME280;66538;53.150;18.160;2023-06-10T06:45:17;101655.78;;;21.73;45.60
77454;BME280;66538;53.150;18.160;2023-06-10T06:47:44;101654.85;;;21.83;45.49
77454;BME280;66538;53.150;18.160;2023-06-10T06:50:10;101656.05;;;21.95;45.43
77454;BME280;66538;53.150;18.160;2023-06-10T06:52:37;101657.48;;;22.09;45.47
77454;BME280;66538;53.150;18.160;2023-06-10T06:55:04;101652.54;;;22.19;45.21
77454;BME280;66538;53.150;18.160;2023-06-10T06:57:31;101662.93;;;22.19;45.31
77454;BME280;66538;53.150;18.160;2023-06-10T06:59:58;101668.39;;;22.18;45.22
77454;BME280;66538;53.150;18.160;2023-06-10T07:02:25;101672.27;;;22.14;45.08
77454;BME280;66538;53.150;18.160;2023-06-10T07:04:51;101670.42;;;22.11;44.86
77454;BME280;66538;53.150;18.160;2023-06-10T07:07:21;101675.79;;;22.04;45.17
77454;BME280;66538;53.150;18.160;2023-06-10T07:09:48;101678.08;;;21.94;45.13
77454;BME280;66538;53.150;18.160;2023-06-10T07:12:15;101676.09;;;21.81;45.27
77454;BME280;66538;53.150;18.160;2023-06-10T07:14:41;101672.13;;;21.75;45.88
77454;BME280;66538;53.150;18.160;2023-06-10T07:17:08;101673.36;;;21.74;45.96
77454;BME280;66538;53.150;18.160;2023-06-10T07:19:35;101674.11;;;21.77;46.16
77454;BME280;66538;53.150;18.160;2023-06-10T07:22:02;101670.95;;;21.88;46.15
77454;BME280;66538;53.150;18.160;2023-06-10T07:24:28;101673.73;;;22.04;46.00
77454;BME280;66538;53.150;18.160;2023-06-10T07:26:55;101674.02;;;22.20;46.12
77454;BME280;66538;53.150;18.160;2023-06-10T07:29:21;101670.91;;;22.41;45.80
77454;BME280;66538;53.150;18.160;2023-06-10T07:31:48;101673.80;;;22.62;45.65
77454;BME280;66538;53.150;18.160;2023-06-10T07:34:15;101677.51;;;22.79;45.36
77454;BME280;66538;53.150;18.160;2023-06-10T07:36:41;101673.29;;;22.89;45.23
77454;BME280;66538;53.150;18.160;2023-06-10T07:39:08;101677.87;;;23.04;45.02
77454;BME280;66538;53.150;18.160;2023-06-10T07:41:35;101672.95;;;23.17;44.62
77454;BME280;66538;53.150;18.160;2023-06-10T07:44:01;101676.95;;;23.30;44.11
77454;BME280;66538;53.150;18.160;2023-06-10T07:46:29;101679.55;;;23.42;43.59
77454;BME280;66538;53.150;18.160;2023-06-10T07:48:55;101681.24;;;23.54;42.17
77454;BME280;66538;53.150;18.160;2023-06-10T07:51:22;101678.62;;;23.63;41.38
77454;BME280;66538;53.150;18.160;2023-06-10T07:53:49;101679.58;;;23.74;41.51
77454;BME280;66538;53.150;18.160;2023-06-10T07:56:15;101674.39;;;23.81;41.26
77454;BME280;66538;53.150;18.160;2023-06-10T07:58:42;101680.14;;;23.97;41.44
77454;BME280;66538;53.150;18.160;2023-06-10T08:01:08;101680.67;;;24.08;40.97
77454;BME280;66538;53.150;18.160;2023-06-10T08:03:35;101685.90;;;24.12;40.40
77454;BME280;66538;53.150;18.160;2023-06-10T08:06:02;101690.11;;;24.08;40.02
77454;BME280;66538;53.150;18.160;2023-06-10T08:08:29;101694.97;;;24.09;39.84
77454;BME280;66538;53.150;18.160;2023-06-10T08:10:55;101695.89;;;24.09;39.72
77454;BME280;66538;53.150;18.160;2023-06-10T08:13:22;101702.36;;;24.07;39.54
77454;BME280;66538;53.150;18.160;2023-06-10T08:15:48;101698.69;;;24.03;39.93
77454;BME280;66538;53.150;18.160;2023-06-10T08:18:17;101702.16;;;24.06;39.47
77454;BME280;66538;53.150;18.160;2023-06-10T08:20:43;101701.59;;;24.10;39.48
77454;BME280;66538;53.150;18.160;2023-06-10T08:23:10;101703.42;;;24.15;39.35
77454;BME280;66538;53.150;18.160;2023-06-10T08:25:37;101701.98;;;24.21;39.24
77454;BME280;66538;53.150;18.160;2023-06-10T08:28:03;101708.09;;;24.25;39.07
77454;BME280;66538;53.150;18.160;2023-06-10T08:30:30;101707.48;;;24.28;39.04
77454;BME280;66538;53.150;18.160;2023-06-10T08:32:56;101708.32;;;24.33;38.84
77454;BME280;66538;53.150;18.160;2023-06-10T08:35:23;101704.73;;;24.38;38.82
77454;BME280;66538;53.150;18.160;2023-06-10T08:37:50;101707.17;;;24.48;39.00
77454;BME280;66538;53.150;18.160;2023-06-10T08:40:17;101705.58;;;24.62;38.81
77454;BME280;66538;53.150;18.160;2023-06-10T08:43:06;101707.57;;;24.72;38.49
77454;BME280;66538;53.150;18.160;2023-06-10T08:45:36;101709.45;;;24.86;38.29
77454;BME280;66538;53.150;18.160;2023-06-10T08:48:03;101713.09;;;24.92;37.91
77454;BME280;66538;53.150;18.160;2023-06-10T08:50:37;101715.57;;;24.92;37.81
77454;BME280;66538;53.150;18.160;2023-06-10T08:53:06;101716.08;;;24.93;37.44
77454;BME280;66538;53.150;18.160;2023-06-10T08:55:38;101712.56;;;24.92;37.58
77454;BME280;66538;53.150;18.160;2023-06-10T08:58:05;101715.84;;;24.97;37.71
77454;BME280;66538;53.150;18.160;2023-06-10T09:00:32;101712.31;;;25.01;37.56
77454;BME280;66538;53.150;18.160;2023-06-10T09:03:00;101711.30;;;25.05;37.56
77454;BME280;66538;53.150;18.160;2023-06-10T09:05:28;101712.02;;;25.13;37.27
77454;BME280;66538;53.150;18.160;2023-06-10T09:07:57;101709.89;;;25.24;37.48
77454;BME280;66538;53.150;18.160;2023-06-10T09:10:24;101708.21;;;25.36;37.21
77454;BME280;66538;53.150;18.160;2023-06-10T09:12:52;101707.67;;;25.41;37.05
77454;BME280;66538;53.150;18.160;2023-06-10T09:15:19;101703.85;;;25.52;36.96
77454;BME280;66538;53.150;18.160;2023-06-10T09:17:46;101710.87;;;25.64;36.01
77454;BME280;66538;53.150;18.160;2023-06-10T09:20:13;101708.30;;;25.75;35.44
77454;BME280;66538;53.150;18.160;2023-06-10T09:22:42;101702.74;;;25.83;35.53
77454;BME280;66538;53.150;18.160;2023-06-10T09:25:11;101707.71;;;25.95;35.53
77454;BME280;66538;53.150;18.160;2023-06-10T09:27:51;101713.23;;;26.01;34.85
77454;BME280;66538;53.150;18.160;2023-06-10T09:32:53;101708.05;;;26.04;34.66
77454;BME280;66538;53.150;18.160;2023-06-10T09:35:20;101701.17;;;26.13;34.56
77454;BME280;66538;53.150;18.160;2023-06-10T09:37:51;101699.96;;;26.22;34.09
77454;BME280;66538;53.150;18.160;2023-06-10T09:40:18;101699.60;;;26.31;34.25
77454;BME280;66538;53.150;18.160;2023-06-10T09:42:45;101696.70;;;26.38;33.57
77454;BME280;66538;53.150;18.160;2023-06-10T09:45:11;101698.27;;;26.45;33.07
77454;BME280;66538;53.150;18.160;2023-06-10T09:47:38;101699.06;;;26.42;32.80
77454;BME280;66538;53.150;18.160;2023-06-10T09:50:05;101695.27;;;26.40;33.01
77454;BME280;66538;53.150;18.160;2023-06-10T09:52:31;101692.30;;;26.47;32.01
77454;BME280;66538;53.150;18.160;2023-06-10T09:55:00;101697.98;;;26.56;31.57
77454;BME280;66538;53.150;18.160;2023-06-10T09:57:32;101698.38;;;26.58;31.01
77454;BME280;66538;53.150;18.160;2023-06-10T10:00:04;101696.06;;;26.61;31.78
77454;BME280;66538;53.150;18.160;2023-06-10T10:02:46;101700.20;;;26.73;31.02
77454;BME280;66538;53.150;18.160;2023-06-10T10:05:15;101693.47;;;26.80;30.59
77454;BME280;66538;53.150;18.160;2023-06-10T10:07:43;101699.65;;;26.82;30.74
77454;BME280;66538;53.150;18.160;2023-06-10T10:10:10;101703.28;;;26.86;31.01
77454;BME280;66538;53.150;18.160;2023-06-10T10:12:39;101700.03;;;26.90;30.13
77454;BME280;66538;53.150;18.160;2023-06-10T10:15:07;101706.73;;;26.93;28.61
77454;BME280;66538;53.150;18.160;2023-06-10T10:17:38;101702.48;;;26.94;29.51
77454;BME280;66538;53.150;18.160;2023-06-10T10:20:08;101708.89;;;26.95;29.74
77454;BME280;66538;53.150;18.160;2023-06-10T10:22:38;101702.33;;;27.00;29.00
77454;BME280;66538;53.150;18.160;2023-06-10T10:25:10;101702.42;;;27.03;29.39
77454;BME280;66538;53.150;18.160;2023-06-10T10:27:48;101697.30;;;27.08;28.90
77454;BME280;66538;53.150;18.160;2023-06-10T10:30:17;101702.05;;;27.13;29.20
77454;BME280;66538;53.150;18.160;2023-06-10T10:33:00;101700.74;;;27.20;29.50
77454;BME280;66538;53.150;18.160;2023-06-10T10:35:33;101696.08;;;27.29;29.74
77454;BME280;66538;53.150;18.160;2023-06-10T10:37:59;101694.27;;;27.36;29.71
77454;BME280;66538;53.150;18.160;2023-06-10T10:40:27;101700.47;;;27.47;28.67
77454;BME280;66538;53.150;18.160;2023-06-10T10:42:56;101690.70;;;27.57;28.36
77454;BME280;66538;53.150;18.160;2023-06-10T10:45:27;101689.73;;;27.67;27.87
77454;BME280;66538;53.150;18.160;2023-06-10T10:47:55;101692.46;;;27.67;27.87
77454;BME280;66538;53.150;18.160;2023-06-10T10:50:23;101690.20;;;27.69;28.14
77454;BME280;66538;53.150;18.160;2023-06-10T10:53:04;101693.37;;;27.75;28.29
77454;BME280;66538;53.150;18.160;2023-06-10T10:55:32;101694.66;;;27.87;28.05
77454;BME280;66538;53.150;18.160;2023-06-10T10:58:03;101696.16;;;27.96;27.85
77454;BME280;66538;53.150;18.160;2023-06-10T11:03:09;101698.21;;;28.05;27.86
77454;BME280;66538;53.150;18.160;2023-06-10T11:05:41;101695.23;;;28.11;27.25
77454;BME280;66538;53.150;18.160;2023-06-10T11:08:11;101695.20;;;28.23;27.70
77454;BME280;66538;53.150;18.160;2023-06-10T11:10:40;101693.95;;;28.31;27.17
77454;BME280;66538;53.150;18.160;2023-06-10T11:13:09;101687.30;;;28.30;27.18
77454;BME280;66538;53.150;18.160;2023-06-10T11:15:44;101687.66;;;28.38;27.32
77454;BME280;66538;53.150;18.160;2023-06-10T11:18:27;101679.92;;;28.42;27.01
77454;BME280;66538;53.150;18.160;2023-06-10T11:21:04;101676.15;;;28.50;26.94
77454;BME280;66538;53.150;18.160;2023-06-10T11:23:33;101681.05;;;28.63;26.48
77454;BME280;66538;53.150;18.160;2023-06-10T11:26:20;101678.42;;;28.71;26.05
77454;BME280;66538;53.150;18.160;2023-06-10T11:31:31;101681.97;;;28.68;24.91
77454;BME280;66538;53.150;18.160;2023-06-10T11:34:00;101680.21;;;28.65;24.98
77454;BME280;66538;53.150;18.160;2023-06-10T11:36:28;101677.39;;;28.68;24.42
77454;BME280;66538;53.150;18.160;2023-06-10T11:39:05;101676.55;;;28.77;24.66
77454;BME280;66538;53.150;18.160;2023-06-10T11:41:33;101675.22;;;28.82;24.01
77454;BME280;66538;53.150;18.160;2023-06-10T11:44:07;101668.68;;;28.82;24.24
77454;BME280;66538;53.150;18.160;2023-06-10T11:46:34;101673.50;;;28.99;23.62
77454;BME280;66538;53.150;18.160;2023-06-10T11:49:02;101672.96;;;29.08;23.21
77454;BME280;66538;53.150;18.160;2023-06-10T11:51:32;101669.99;;;29.15;22.69
77454;BME280;66538;53.150;18.160;2023-06-10T11:53:59;101674.62;;;29.19;21.06
77454;BME280;66538;53.150;18.160;2023-06-10T11:56:27;101676.88;;;29.23;21.37
77454;BME280;66538;53.150;18.160;2023-06-10T11:59:00;101677.95;;;29.34;20.47
77454;BME280;66538;53.150;18.160;2023-06-10T12:01:32;101673.27;;;29.31;20.65
77454;BME280;66538;53.150;18.160;2023-06-10T12:04:10;101664.98;;;29.34;20.55
77454;BME280;66538;53.150;18.160;2023-06-10T12:09:17;101668.11;;;29.60;20.92
77454;BME280;66538;53.150;18.160;2023-06-10T12:11:45;101669.64;;;29.84;20.47
77454;BME280;66538;53.150;18.160;2023-06-10T12:14:12;101668.98;;;29.98;19.71
77454;BME280;66538;53.150;18.160;2023-06-10T12:16:38;101666.90;;;30.03;18.98
77454;BME280;66538;53.150;18.160;2023-06-10T12:19:05;101671.10;;;30.14;17.82
77454;BME280;66538;53.150;18.160;2023-06-10T12:21:33;101668.48;;;30.26;17.80
77454;BME280;66538;53.150;18.160;2023-06-10T12:24:07;101671.86;;;30.34;17.56
77454;BME280;66538;53.150;18.160;2023-06-10T12:26:45;101668.45;;;30.36;17.58
77454;BME280;66538;53.150;18.160;2023-06-10T12:29:20;101671.01;;;30.40;16.59
77454;BME280;66538;53.150;18.160;2023-06-10T12:32:01;101665.33;;;30.42;16.63
77454;BME280;66538;53.150;18.160;2023-06-10T12:34:33;101667.46;;;30.45;16.66
77454;BME280;66538;53.150;18.160;2023-06-10T12:37:02;101666.59;;;30.46;16.48
77454;BME280;66538;53.150;18.160;2023-06-10T12:39:31;101668.62;;;30.36;15.92
77454;BME280;66538;53.150;18.160;2023-06-10T12:41:59;101670.85;;;30.29;16.37
77454;BME280;66538;53.150;18.160;2023-06-10T12:44:34;101669.98;;;30.30;16.78
77454;BME280;66538;53.150;18.160;2023-06-10T12:47:07;101663.52;;;30.50;17.48
77454;BME280;66538;53.150;18.160;2023-06-10T12:49:35;101662.21;;;30.76;17.50
77454;BME280;66538;53.150;18.160;2023-06-10T12:52:03;101657.58;;;30.92;17.64
77454;BME280;66538;53.150;18.160;2023-06-10T12:54:30;101657.13;;;31.08;17.61
77454;BME280;66538;53.150;18.160;2023-06-10T12:56:56;101657.02;;;31.06;17.92
77454;BME280;66538;53.150;18.160;2023-06-10T12:59:23;101649.33;;;30.99;18.14